sensor_id;sensor_type;location;lat;lon;timestamp;temperature;humidity
41926;DHT22;27615;51.826;5.692;2022-12-29T00:01:26;11.30;99.90
41926;DHT22;27615;51.826;5.692;2022-12-29T00:03:51;11.30;99.90
41926;DHT22;27615;51.826;5.692;2022-12-29T00:06:17;11.30;99.90
41926;DHT22;27615;51.826;5.692;2022-12-29T00:08:43;11.30;99.90
41926;DHT22;27615;51.826;5.692;2022-12-29T00:11:10;11.30;99.90
41926;DHT22;27615;51.826;5.692;2022-12-29T00:13:36;11.30;99.90
41926;DHT22;27615;51.826;5.692;2022-12-29T00:16:20;11.30;99.90
41926;DHT22;27615;51.826;5.692;2022-12-29T00:18:46;11.30;99.90
41926;DHT22;27615;51.826;5.692;2022-12-29T00:21:17;11.30;99.90
41926;DHT22;27615;51.826;5.692;2022-12-29T00:24:01;11.30;99.90
41926;DHT22;27615;51.826;5.692;2022-12-29T00:26:53;11.30;99.90
41926;DHT22;27615;51.826;5.692;2022-12-29T00:29:38;11.30;99.90
41926;DHT22;27615;51.826;5.692;2022-12-29T00:32:22;11.30;99.90
41926;DHT22;27615;51.826;5.692;2022-12-29T00:35:11;11.30;99.90
41926;DHT22;27615;51.826;5.692;2022-12-29T00:37:40;11.30;99.90
41926;DHT22;27615;51.826;5.692;2022-12-29T00:40:25;11.30;99.90
41926;DHT22;27615;51.826;5.692;2022-12-29T00:43:09;11.30;99.90
41926;DHT22;27615;51.826;5.692;2022-12-29T00:45:53;11.20;99.90
41926;DHT22;27615;51.826;5.692;2022-12-29T00:48:18;11.20;99.90
41926;DHT22;27615;51.826;5.692;2022-12-29T00:51:04;11.20;99.90
41926;DHT22;27615;51.826;5.692;2022-12-29T00:53:30;11.20;99.90
41926;DHT22;27615;51.826;5.692;2022-12-29T00:55:55;11.20;99.90
41926;DHT22;27615;51.826;5.692;2022-12-29T00:58:21;11.30;99.90
41926;DHT22;27615;51.826;5.692;2022-12-29T01:00:46;11.30;99.90
41926;DHT22;27615;51.826;5.692;2022-12-29T01:03:12;11.30;99.90
41926;DHT22;27615;51.826;5.692;2022-12-29T01:05:37;11.30;99.90
41926;DHT22;27615;51.826;5.692;2022-12-29T01:08:03;11.30;99.90
41926;DHT22;27615;51.826;5.692;2022-12-29T01:10:29;11.20;99.90
41926;DHT22;27615;51.826;5.692;2022-12-29T01:12:54;11.20;99.90
41926;DHT22;27615;51.826;5.692;2022-12-29T01:15:20;11.20;99.90
41926;DHT22;27615;51.826;5.692;2022-12-29T01:17:45;11.10;99.90
41926;DHT22;27615;51.826;5.692;2022-12-29T01:20:11;11.10;99.90
41926;DHT22;27615;51.826;5.692;2022-12-29T01:22:37;11.10;99.90
41926;DHT22;27615;51.826;5.692;2022-12-29T01:25:04;11.00;99.90
41926;DHT22;27615;51.826;5.692;2022-12-29T01:27:29;11.00;99.90
41926;DHT22;27615;51.826;5.692;2022-12-29T01:29:55;11.00;99.90
41926;DHT22;27615;51.826;5.692;2022-12-29T01:32:20;10.90;99.90
41926;DHT22;27615;51.826;5.692;2022-12-29T01:34:46;10.90;99.90
41926;DHT22;27615;51.826;5.692;2022-12-29T01:37:12;10.90;99.90
41926;DHT22;27615;51.826;5.692;2022-12-29T01:39:37;10.90;99.90
41926;DHT22;27615;51.826;5.692;2022-12-29T01:42:03;10.90;99.90
41926;DHT22;27615;51.826;5.692;2022-12-29T01:47:29;10.90;99.90
41926;DHT22;27615;51.826;5.692;2022-12-29T01:49:58;10.90;99.90
41926;DHT22;27615;51.826;5.692;2022-12-29T01:52:27;11.00;99.90
41926;DHT22;27615;51.826;5.692;2022-12-29T01:54:55;11.00;99.90
41926;DHT22;27615;51.826;5.692;2022-12-29T01:57:27;11.00;99.90
41926;DHT22;27615;51.826;5.692;2022-12-29T02:00:10;11.10;99.90
41926;DHT22;27615;51.826;5.692;2022-12-29T02:02:36;11.10;99.90
41926;DHT22;27615;51.826;5.692;2022-12-29T02:05:14;11.10;99.90
41926;DHT22;27615;51.826;5.692;2022-12-29T02:07:41;11.20;99.90
41926;DHT22;27615;51.826;5.692;2022-12-29T02:10:07;11.20;99.90
41926;DHT22;27615;51.826;5.692;2022-12-29T02:12:33;11.30;99.90
41926;DHT22;27615;51.826;5.692;2022-12-29T02:15:00;11.30;99.90
41926;DHT22;27615;51.826;5.692;2022-12-29T02:17:53;11.40;99.90
41926;DHT22;27615;51.826;5.692;2022-12-29T02:31:46;11.60;99.90
41926;DHT22;27615;51.826;5.692;2022-12-29T02:42:39;11.80;99.90
41926;DHT22;27615;51.826;5.692;2022-12-29T02:45:14;11.80;99.90
41926;DHT22;27615;51.826;5.692;2022-12-29T02:50:17;11.90;99.90
41926;DHT22;27615;51.826;5.692;2022-12-29T02:52:55;11.90;99.90
41926;DHT22;27615;51.826;5.692;2022-12-29T02:55:23;11.90;99.90
41926;DHT22;27615;51.826;5.692;2022-12-29T02:57:48;11.90;99.90
41926;DHT22;27615;51.826;5.692;2022-12-29T03:00:30;12.00;99.90
41926;DHT22;27615;51.826;5.692;2022-12-29T03:03:22;12.00;99.90
41926;DHT22;27615;51.826;5.692;2022-12-29T03:11:33;12.00;99.90
41926;DHT22;27615;51.826;5.692;2022-12-29T03:14:30;12.00;99.90
41926;DHT22;27615;51.826;5.692;2022-12-29T03:17:29;12.00;99.90
41926;DHT22;27615;51.826;5.692;2022-12-29T03:20:07;12.00;99.90
41926;DHT22;27615;51.826;5.692;2022-12-29T03:22:39;12.00;99.90
41926;DHT22;27615;51.826;5.692;2022-12-29T03:25:13;12.00;99.90
41926;DHT22;27615;51.826;5.692;2022-12-29T03:27:53;12.00;99.90
41926;DHT22;27615;51.826;5.692;2022-12-29T03:30:21;12.00;99.90
41926;DHT22;27615;51.826;5.692;2022-12-29T03:32:50;11.90;99.90
41926;DHT22;27615;51.826;5.692;2022-12-29T03:35:17;11.90;99.90
41926;DHT22;27615;51.826;5.692;2022-12-29T03:37:58;11.90;99.90
41926;DHT22;27615;51.826;5.692;2022-12-29T03:40:26;11.90;99.90
41926;DHT22;27615;51.826;5.692;2022-12-29T03:42:53;11.80;99.90
41926;DHT22;27615;51.826;5.692;2022-12-29T03:45:19;11.80;99.90
41926;DHT22;27615;51.826;5.692;2022-12-29T03:47:45;11.80;99.90
41926;DHT22;27615;51.826;5.692;2022-12-29T03:50:12;11.90;99.90
41926;DHT22;27615;51.826;5.692;2022-12-29T03:52:38;11.80;99.90
41926;DHT22;27615;51.826;5.692;2022-12-29T03:55:04;11.80;99.90
41926;DHT22;27615;51.826;5.692;2022-12-29T03:57:29;11.80;99.90
41926;DHT22;27615;51.826;5.692;2022-12-29T03:59:55;11.80;99.90
41926;DHT22;27615;51.826;5.692;2022-12-29T04:02:20;11.70;99.90
41926;DHT22;27615;51.826;5.692;2022-12-29T04:04:46;11.80;99.90
41926;DHT22;27615;51.826;5.692;2022-12-29T04:07:12;11.70;99.90
41926;DHT22;27615;51.826;5.692;2022-12-29T04:09:37;11.80;99.90
41926;DHT22;27615;51.826;5.692;2022-12-29T04:12:03;11.70;99.90
41926;DHT22;27615;51.826;5.692;2022-12-29T04:14:28;11.70;99.90
41926;DHT22;27615;51.826;5.692;2022-12-29T04:16:54;11.70;99.90
41926;DHT22;27615;51.826;5.692;2022-12-29T04:19:19;11.70;99.90
41926;DHT22;27615;51.826;5.692;2022-12-29T04:21:45;11.70;99.90
41926;DHT22;27615;51.826;5.692;2022-12-29T04:24:10;11.70;99.90
41926;DHT22;27615;51.826;5.692;2022-12-29T04:26:36;11.70;99.90
41926;DHT22;27615;51.826;5.692;2022-12-29T04:29:01;11.70;99.90
41926;DHT22;27615;51.826;5.692;2022-12-29T04:31:27;11.60;99.90
41926;DHT22;27615;51.826;5.692;2022-12-29T04:33:52;11.60;99.90
41926;DHT22;27615;51.826;5.692;2022-12-29T04:36:18;11.60;99.90
41926;DHT22;27615;51.826;5.692;2022-12-29T04:38:44;11.60;99.90
41926;DHT22;27615;51.826;5.692;2022-12-29T04:41:09;11.50;99.90
41926;DHT22;27615;51.826;5.692;2022-12-29T04:43:35;11.50;99.90
41926;DHT22;27615;51.826;5.692;2022-12-29T04:46:00;11.50;99.90
41926;DHT22;27615;51.826;5.692;2022-12-29T04:48:26;11.50;99.90
41926;DHT22;27615;51.826;5.692;2022-12-29T04:50:51;11.50;99.90
41926;DHT22;27615;51.826;5.692;2022-12-29T04:53:17;11.40;99.90
41926;DHT22;27615;51.826;5.692;2022-12-29T04:55:43;11.40;99.90
41926;DHT22;27615;51.826;5.692;2022-12-29T04:58:08;11.20;99.90
41926;DHT22;27615;51.826;5.692;2022-12-29T05:00:34;11.00;99.90
41926;DHT22;27615;51.826;5.692;2022-12-29T05:03:00;10.70;99.90
41926;DHT22;27615;51.826;5.692;2022-12-29T05:05:26;10.50;99.90
41926;DHT22;27615;51.826;5.692;2022-12-29T05:07:51;10.40;99.90
41926;DHT22;27615;51.826;5.692;2022-12-29T05:10:17;10.30;99.90
41926;DHT22;27615;51.826;5.692;2022-12-29T05:12:43;10.30;99.90
41926;DHT22;27615;51.826;5.692;2022-12-29T05:15:10;10.20;99.90
41926;DHT22;27615;51.826;5.692;2022-12-29T05:17:36;10.10;99.90
41926;DHT22;27615;51.826;5.692;2022-12-29T05:20:02;10.10;99.90
41926;DHT22;27615;51.826;5.692;2022-12-29T05:22:28;10.00;99.90
41926;DHT22;27615;51.826;5.692;2022-12-29T05:24:53;10.00;99.90
41926;DHT22;27615;51.826;5.692;2022-12-29T05:27:19;10.00;99.90
41926;DHT22;27615;51.826;5.692;2022-12-29T05:29:44;9.90;99.90
41926;DHT22;27615;51.826;5.692;2022-12-29T05:32:10;9.90;99.90
41926;DHT22;27615;51.826;5.692;2022-12-29T05:34:35;9.90;99.90
41926;DHT22;27615;51.826;5.692;2022-12-29T05:37:01;9.90;99.90
41926;DHT22;27615;51.826;5.692;2022-12-29T05:39:28;9.90;99.90
41926;DHT22;27615;51.826;5.692;2022-12-29T05:41:53;9.90;99.90
41926;DHT22;27615;51.826;5.692;2022-12-29T05:44:19;9.90;99.90
41926;DHT22;27615;51.826;5.692;2022-12-29T05:46:44;9.90;99.90
41926;DHT22;27615;51.826;5.692;2022-12-29T05:49:10;9.90;99.90
41926;DHT22;27615;51.826;5.692;2022-12-29T05:51:35;9.90;99.90
41926;DHT22;27615;51.826;5.692;2022-12-29T05:54:01;9.90;99.90
41926;DHT22;27615;51.826;5.692;2022-12-29T05:56:26;9.90;99.90
41926;DHT22;27615;51.826;5.692;2022-12-29T05:58:52;9.90;99.90
41926;DHT22;27615;51.826;5.692;2022-12-29T06:01:17;10.00;99.90
41926;DHT22;27615;51.826;5.692;2022-12-29T06:03:43;10.00;99.90
41926;DHT22;27615;51.826;5.692;2022-12-29T06:06:09;10.00;99.90
41926;DHT22;27615;51.826;5.692;2022-12-29T06:08:35;10.00;99.90
41926;DHT22;27615;51.826;5.692;2022-12-29T06:11:00;10.00;99.90
41926;DHT22;27615;51.826;5.692;2022-12-29T06:13:26;10.00;99.90
41926;DHT22;27615;51.826;5.692;2022-12-29T06:15:52;10.00;99.90
41926;DHT22;27615;51.826;5.692;2022-12-29T06:18:18;10.00;99.90
41926;DHT22;27615;51.826;5.692;2022-12-29T06:20:43;10.10;99.90
41926;DHT22;27615;51.826;5.692;2022-12-29T06:23:09;10.10;99.90
41926;DHT22;27615;51.826;5.692;2022-12-29T06:25:35;10.00;99.90
41926;DHT22;27615;51.826;5.692;2022-12-29T06:28:01;10.10;99.90
41926;DHT22;27615;51.826;5.692;2022-12-29T06:30:27;10.10;99.90
41926;DHT22;27615;51.826;5.692;2022-12-29T06:32:53;10.10;99.90
41926;DHT22;27615;51.826;5.692;2022-12-29T06:35:19;10.20;99.90
41926;DHT22;27615;51.826;5.692;2022-12-29T06:37:45;10.20;99.90
41926;DHT22;27615;51.826;5.692;2022-12-29T06:40:11;10.20;99.90
41926;DHT22;27615;51.826;5.692;2022-12-29T06:42:37;10.30;99.90
41926;DHT22;27615;51.826;5.692;2022-12-29T06:45:03;10.40;99.90
41926;DHT22;27615;51.826;5.692;2022-12-29T06:47:28;10.40;99.90
41926;DHT22;27615;51.826;5.692;2022-12-29T06:49:54;10.50;99.90
41926;DHT22;27615;51.826;5.692;2022-12-29T06:52:20;10.50;99.90
41926;DHT22;27615;51.826;5.692;2022-12-29T06:54:45;10.50;99.90
41926;DHT22;27615;51.826;5.692;2022-12-29T06:57:11;10.50;99.90
41926;DHT22;27615;51.826;5.692;2022-12-29T06:59:36;10.50;99.90
41926;DHT22;27615;51.826;5.692;2022-12-29T07:02:02;10.60;99.90
41926;DHT22;27615;51.826;5.692;2022-12-29T07:04:28;10.60;99.90
41926;DHT22;27615;51.826;5.692;2022-12-29T07:06:54;10.60;99.90
41926;DHT22;27615;51.826;5.692;2022-12-29T07:09:19;10.60;99.90
41926;DHT22;27615;51.826;5.692;2022-12-29T07:11:45;10.70;99.90
41926;DHT22;27615;51.826;5.692;2022-12-29T07:14:11;10.60;99.90
41926;DHT22;27615;51.826;5.692;2022-12-29T07:16:36;10.70;99.90
41926;DHT22;27615;51.826;5.692;2022-12-29T07:19:02;10.70;99.90
41926;DHT22;27615;51.826;5.692;2022-12-29T07:21:28;10.70;99.90
41926;DHT22;27615;51.826;5.692;2022-12-29T07:23:54;10.70;99.90
41926;DHT22;27615;51.826;5.692;2022-12-29T07:26:19;10.70;99.90
41926;DHT22;27615;51.826;5.692;2022-12-29T07:28:45;10.70;99.90
41926;DHT22;27615;51.826;5.692;2022-12-29T07:31:18;10.70;99.90
41926;DHT22;27615;51.826;5.692;2022-12-29T07:33:45;10.80;99.90
41926;DHT22;27615;51.826;5.692;2022-12-29T07:36:12;10.70;99.90
41926;DHT22;27615;51.826;5.692;2022-12-29T07:38:38;10.80;99.90
41926;DHT22;27615;51.826;5.692;2022-12-29T07:41:04;10.80;99.90
41926;DHT22;27615;51.826;5.692;2022-12-29T07:43:29;10.80;99.90
41926;DHT22;27615;51.826;5.692;2022-12-29T07:45:55;10.90;99.90
41926;DHT22;27615;51.826;5.692;2022-12-29T07:48:21;10.90;99.90
41926;DHT22;27615;51.826;5.692;2022-12-29T07:50:47;10.80;99.90
41926;DHT22;27615;51.826;5.692;2022-12-29T07:53:13;10.90;99.90
41926;DHT22;27615;51.826;5.692;2022-12-29T07:55:38;10.80;99.90
41926;DHT22;27615;51.826;5.692;2022-12-29T07:58:04;10.90;99.90
41926;DHT22;27615;51.826;5.692;2022-12-29T08:00:29;10.80;99.90
41926;DHT22;27615;51.826;5.692;2022-12-29T08:02:55;10.70;99.90
41926;DHT22;27615;51.826;5.692;2022-12-29T08:05:20;10.70;99.90
41926;DHT22;27615;51.826;5.692;2022-12-29T08:07:46;10.80;99.90
41926;DHT22;27615;51.826;5.692;2022-12-29T08:10:13;10.80;99.90
41926;DHT22;27615;51.826;5.692;2022-12-29T08:12:40;10.70;99.90
41926;DHT22;27615;51.826;5.692;2022-12-29T08:15:07;10.70;99.90
41926;DHT22;27615;51.826;5.692;2022-12-29T08:17:33;10.70;99.90
41926;DHT22;27615;51.826;5.692;2022-12-29T08:19:59;10.70;99.90
41926;DHT22;27615;51.826;5.692;2022-12-29T08:22:24;10.70;99.90
41926;DHT22;27615;51.826;5.692;2022-12-29T08:24:50;10.70;99.90
41926;DHT22;27615;51.826;5.692;2022-12-29T08:27:16;10.70;99.90
41926;DHT22;27615;51.826;5.692;2022-12-29T08:29:42;10.70;99.90
41926;DHT22;27615;51.826;5.692;2022-12-29T08:32:08;10.70;99.90
41926;DHT22;27615;51.826;5.692;2022-12-29T08:34:33;10.70;99.90
41926;DHT22;27615;51.826;5.692;2022-12-29T08:36:59;10.70;99.90
41926;DHT22;27615;51.826;5.692;2022-12-29T08:39:24;10.70;99.90
41926;DHT22;27615;51.826;5.692;2022-12-29T08:41:50;10.70;99.90
41926;DHT22;27615;51.826;5.692;2022-12-29T08:44:15;10.70;99.90
41926;DHT22;27615;51.826;5.692;2022-12-29T08:46:41;10.70;99.90
41926;DHT22;27615;51.826;5.692;2022-12-29T08:49:07;10.80;99.90
41926;DHT22;27615;51.826;5.692;2022-12-29T08:51:32;10.80;99.90
41926;DHT22;27615;51.826;5.692;2022-12-29T08:53:59;10.80;99.90
41926;DHT22;27615;51.826;5.692;2022-12-29T08:56:24;10.80;99.90
41926;DHT22;27615;51.826;5.692;2022-12-29T08:58:51;10.80;99.90
41926;DHT22;27615;51.826;5.692;2022-12-29T09:01:17;10.80;99.90
41926;DHT22;27615;51.826;5.692;2022-12-29T09:03:43;10.80;99.90
41926;DHT22;27615;51.826;5.692;2022-12-29T09:06:09;10.80;99.90
41926;DHT22;27615;51.826;5.692;2022-12-29T09:08:35;10.80;99.90
41926;DHT22;27615;51.826;5.692;2022-12-29T09:11:13;10.90;99.90
41926;DHT22;27615;51.826;5.692;2022-12-29T09:13:39;10.80;99.90
41926;DHT22;27615;51.826;5.692;2022-12-29T09:16:04;10.60;99.90
41926;DHT22;27615;51.826;5.692;2022-12-29T09:18:30;10.40;99.90
41926;DHT22;27615;51.826;5.692;2022-12-29T09:21:01;10.30;99.90
41926;DHT22;27615;51.826;5.692;2022-12-29T09:23:27;10.30;99.90
41926;DHT22;27615;51.826;5.692;2022-12-29T09:25:53;10.20;99.90
41926;DHT22;27615;51.826;5.692;2022-12-29T09:28:20;10.30;99.90
41926;DHT22;27615;51.826;5.692;2022-12-29T09:30:46;10.30;99.90
41926;DHT22;27615;51.826;5.692;2022-12-29T09:33:12;10.30;99.90
41926;DHT22;27615;51.826;5.692;2022-12-29T09:35:41;10.30;99.90
41926;DHT22;27615;51.826;5.692;2022-12-29T09:38:07;10.30;99.90
41926;DHT22;27615;51.826;5.692;2022-12-29T09:40:33;10.30;99.90
41926;DHT22;27615;51.826;5.692;2022-12-29T09:45:45;10.30;99.90
41926;DHT22;27615;51.826;5.692;2022-12-29T09:48:29;10.20;99.90
41926;DHT22;27615;51.826;5.692;2022-12-29T09:50:59;10.10;99.90
41926;DHT22;27615;51.826;5.692;2022-12-29T09:53:31;10.00;99.90
41926;DHT22;27615;51.826;5.692;2022-12-29T09:56:01;10.00;99.90
41926;DHT22;27615;51.826;5.692;2022-12-29T09:58:37;9.90;99.90
41926;DHT22;27615;51.826;5.692;2022-12-29T10:01:17;9.70;99.90
41926;DHT22;27615;51.826;5.692;2022-12-29T10:03:52;9.60;99.90
41926;DHT22;27615;51.826;5.692;2022-12-29T10:06:25;9.50;99.90
41926;DHT22;27615;51.826;5.692;2022-12-29T10:22:36;9.10;99.90
41926;DHT22;27615;51.826;5.692;2022-12-29T10:25:14;9.10;99.90
41926;DHT22;27615;51.826;5.692;2022-12-29T10:27:42;9.10;99.90
41926;DHT22;27615;51.826;5.692;2022-12-29T10:30:12;9.10;99.90
41926;DHT22;27615;51.826;5.692;2022-12-29T10:35:13;9.10;99.90
41926;DHT22;27615;51.826;5.692;2022-12-29T10:37:43;9.10;99.90
41926;DHT22;27615;51.826;5.692;2022-12-29T10:40:15;9.10;99.90
41926;DHT22;27615;51.826;5.692;2022-12-29T10:42:45;9.00;99.90
41926;DHT22;27615;51.826;5.692;2022-12-29T10:45:12;9.00;99.90
41926;DHT22;27615;51.826;5.692;2022-12-29T10:47:49;9.10;99.90
41926;DHT22;27615;51.826;5.692;2022-12-29T10:50:16;9.10;99.90
41926;DHT22;27615;51.826;5.692;2022-12-29T10:52:41;9.20;99.90
41926;DHT22;27615;51.826;5.692;2022-12-29T10:55:15;9.20;99.90
41926;DHT22;27615;51.826;5.692;2022-12-29T10:57:42;9.30;99.90
41926;DHT22;27615;51.826;5.692;2022-12-29T11:00:16;9.40;99.90
41926;DHT22;27615;51.826;5.692;2022-12-29T11:05:15;10.20;99.90
41926;DHT22;27615;51.826;5.692;2022-12-29T11:07:43;10.30;99.90
41926;DHT22;27615;51.826;5.692;2022-12-29T11:10:19;10.60;99.90
41926;DHT22;27615;51.826;5.692;2022-12-29T11:12:54;10.60;99.90
41926;DHT22;27615;51.826;5.692;2022-12-29T11:15:20;10.70;99.90
41926;DHT22;27615;51.826;5.692;2022-12-29T11:18:07;10.70;99.90
41926;DHT22;27615;51.826;5.692;2022-12-29T11:20:38;10.70;99.90
41926;DHT22;27615;51.826;5.692;2022-12-29T11:23:05;10.80;99.90
41926;DHT22;27615;51.826;5.692;2022-12-29T11:25:45;10.80;99.90
41926;DHT22;27615;51.826;5.692;2022-12-29T11:28:16;10.80;99.90
41926;DHT22;27615;51.826;5.692;2022-12-29T11:30:42;10.70;99.90
41926;DHT22;27615;51.826;5.692;2022-12-29T11:33:08;10.80;99.90
41926;DHT22;27615;51.826;5.692;2022-12-29T11:35:35;10.90;99.90
41926;DHT22;27615;51.826;5.692;2022-12-29T11:38:01;11.20;99.90
41926;DHT22;27615;51.826;5.692;2022-12-29T11:40:27;11.20;99.90
41926;DHT22;27615;51.826;5.692;2022-12-29T11:43:00;11.30;99.90
41926;DHT22;27615;51.826;5.692;2022-12-29T11:45:35;11.40;99.90
41926;DHT22;27615;51.826;5.692;2022-12-29T11:48:16;11.40;99.90
41926;DHT22;27615;51.826;5.692;2022-12-29T11:50:42;11.30;99.90
41926;DHT22;27615;51.826;5.692;2022-12-29T11:53:16;11.90;99.90
41926;DHT22;27615;51.826;5.692;2022-12-29T11:56:04;12.50;99.90
41926;DHT22;27615;51.826;5.692;2022-12-29T11:58:32;13.00;99.90
41926;DHT22;27615;51.826;5.692;2022-12-29T12:01:00;13.70;99.90
41926;DHT22;27615;51.826;5.692;2022-12-29T12:03:26;13.80;99.90
41926;DHT22;27615;51.826;5.692;2022-12-29T12:11:04;14.70;99.90
41926;DHT22;27615;51.826;5.692;2022-12-29T12:13:33;14.60;98.70
41926;DHT22;27615;51.826;5.692;2022-12-29T12:16:06;14.50;97.90
41926;DHT22;27615;51.826;5.692;2022-12-29T12:18:47;14.20;97.60
41926;DHT22;27615;51.826;5.692;2022-12-29T12:26:42;14.40;96.70
41926;DHT22;27615;51.826;5.692;2022-12-29T12:29:19;14.80;96.90
41926;DHT22;27615;51.826;5.692;2022-12-29T12:39:43;13.70;98.60
41926;DHT22;27615;51.826;5.692;2022-12-29T12:47:33;13.80;97.40
41926;DHT22;27615;51.826;5.692;2022-12-29T12:52:33;12.80;99.10
41926;DHT22;27615;51.826;5.692;2022-12-29T13:00:03;12.40;99.90
41926;DHT22;27615;51.826;5.692;2022-12-29T13:02:43;12.40;99.90
41926;DHT22;27615;51.826;5.692;2022-12-29T13:05:25;12.60;99.90
41926;DHT22;27615;51.826;5.692;2022-12-29T13:17:55;11.90;99.90
41926;DHT22;27615;51.826;5.692;2022-12-29T13:20:43;11.80;99.90
41926;DHT22;27615;51.826;5.692;2022-12-29T13:23:15;11.70;99.90
41926;DHT22;27615;51.826;5.692;2022-12-29T13:28:43;11.60;99.90
41926;DHT22;27615;51.826;5.692;2022-12-29T13:31:26;11.50;99.90
41926;DHT22;27615;51.826;5.692;2022-12-29T13:36:28;11.40;99.90
41926;DHT22;27615;51.826;5.692;2022-12-29T13:39:06;11.40;99.90
41926;DHT22;27615;51.826;5.692;2022-12-29T13:41:39;11.30;99.90
41926;DHT22;27615;51.826;5.692;2022-12-29T13:44:06;11.30;99.90
41926;DHT22;27615;51.826;5.692;2022-12-29T13:46:36;11.20;99.90
41926;DHT22;27615;51.826;5.692;2022-12-29T13:49:21;11.20;99.90
41926;DHT22;27615;51.826;5.692;2022-12-29T13:51:53;11.10;99.90
41926;DHT22;27615;51.826;5.692;2022-12-29T13:54:25;11.10;99.90
41926;DHT22;27615;51.826;5.692;2022-12-29T13:57:06;11.00;99.90
41926;DHT22;27615;51.826;5.692;2022-12-29T13:59:42;11.00;99.90
41926;DHT22;27615;51.826;5.692;2022-12-29T14:02:21;10.90;99.90
41926;DHT22;27615;51.826;5.692;2022-12-29T14:07:56;10.60;99.90
41926;DHT22;27615;51.826;5.692;2022-12-29T14:10:29;10.40;99.90
41926;DHT22;27615;51.826;5.692;2022-12-29T14:13:11;10.40;99.90
41926;DHT22;27615;51.826;5.692;2022-12-29T14:15:38;10.30;99.90
41926;DHT22;27615;51.826;5.692;2022-12-29T14:20:54;10.10;99.90
41926;DHT22;27615;51.826;5.692;2022-12-29T14:23:27;10.00;99.90
41926;DHT22;27615;51.826;5.692;2022-12-29T14:28:28;9.90;99.90
41926;DHT22;27615;51.826;5.692;2022-12-29T14:31:04;9.90;99.90
41926;DHT22;27615;51.826;5.692;2022-12-29T14:33:30;9.80;99.90
41926;DHT22;27615;51.826;5.692;2022-12-29T14:35:56;9.90;99.90
41926;DHT22;27615;51.826;5.692;2022-12-29T14:38:23;9.90;99.90
41926;DHT22;27615;51.826;5.692;2022-12-29T14:40:49;9.90;99.90
41926;DHT22;27615;51.826;5.692;2022-12-29T14:43:25;9.80;99.90
41926;DHT22;27615;51.826;5.692;2022-12-29T14:45:52;9.80;99.90
41926;DHT22;27615;51.826;5.692;2022-12-29T14:48:30;9.80;99.90
41926;DHT22;27615;51.826;5.692;2022-12-29T14:50:57;9.70;99.90
41926;DHT22;27615;51.826;5.692;2022-12-29T14:53:42;9.70;99.90
41926;DHT22;27615;51.826;5.692;2022-12-29T14:56:09;9.70;99.90
41926;DHT22;27615;51.826;5.692;2022-12-29T14:58:44;9.70;99.90
41926;DHT22;27615;51.826;5.692;2022-12-29T15:01:15;9.60;99.90
41926;DHT22;27615;51.826;5.692;2022-12-29T15:03:45;9.60;99.90
41926;DHT22;27615;51.826;5.692;2022-12-29T15:06:11;9.60;99.90
41926;DHT22;27615;51.826;5.692;2022-12-29T15:08:54;9.60;99.90
41926;DHT22;27615;51.826;5.692;2022-12-29T15:11:22;9.60;99.90
41926;DHT22;27615;51.826;5.692;2022-12-29T15:13:48;9.60;99.90
41926;DHT22;27615;51.826;5.692;2022-12-29T15:16:21;9.60;99.90
41926;DHT22;27615;51.826;5.692;2022-12-29T15:18:47;9.60;99.90
41926;DHT22;27615;51.826;5.692;2022-12-29T15:21:12;9.60;99.90
41926;DHT22;27615;51.826;5.692;2022-12-29T15:23:39;9.50;99.90
41926;DHT22;27615;51.826;5.692;2022-12-29T15:26:05;9.50;99.90
41926;DHT22;27615;51.826;5.692;2022-12-29T15:28:44;9.50;99.90
41926;DHT22;27615;51.826;5.692;2022-12-29T15:31:14;9.50;99.90
41926;DHT22;27615;51.826;5.692;2022-12-29T15:33:41;9.40;99.90
41926;DHT22;27615;51.826;5.692;2022-12-29T15:36:10;9.40;99.90
41926;DHT22;27615;51.826;5.692;2022-12-29T15:38:36;9.40;99.90
41926;DHT22;27615;51.826;5.692;2022-12-29T15:41:07;9.40;99.90
41926;DHT22;27615;51.826;5.692;2022-12-29T15:46:40;9.30;99.90
41926;DHT22;27615;51.826;5.692;2022-12-29T15:49:08;9.30;99.90
41926;DHT22;27615;51.826;5.692;2022-12-29T15:51:35;9.30;99.90
41926;DHT22;27615;51.826;5.692;2022-12-29T15:54:01;9.30;99.90
41926;DHT22;27615;51.826;5.692;2022-12-29T15:56:30;9.30;99.90
41926;DHT22;27615;51.826;5.692;2022-12-29T15:58:56;9.20;99.90
41926;DHT22;27615;51.826;5.692;2022-12-29T16:03:53;9.20;99.90
41926;DHT22;27615;51.826;5.692;2022-12-29T16:09:04;9.20;99.90
41926;DHT22;27615;51.826;5.692;2022-12-29T16:11:39;9.30;99.90
41926;DHT22;27615;51.826;5.692;2022-12-29T16:14:06;9.20;99.90
41926;DHT22;27615;51.826;5.692;2022-12-29T16:16:35;9.20;99.90
41926;DHT22;27615;51.826;5.692;2022-12-29T16:19:02;9.20;99.90
41926;DHT22;27615;51.826;5.692;2022-12-29T16:21:32;9.30;99.90
41926;DHT22;27615;51.826;5.692;2022-12-29T16:24:02;9.20;99.90
41926;DHT22;27615;51.826;5.692;2022-12-29T16:26:30;9.20;99.90
41926;DHT22;27615;51.826;5.692;2022-12-29T16:28:56;9.30;99.90
41926;DHT22;27615;51.826;5.692;2022-12-29T16:33:52;9.20;99.90
41926;DHT22;27615;51.826;5.692;2022-12-29T16:36:21;9.20;99.90
41926;DHT22;27615;51.826;5.692;2022-12-29T16:38:47;9.10;99.90
41926;DHT22;27615;51.826;5.692;2022-12-29T16:41:25;9.10;99.90
41926;DHT22;27615;51.826;5.692;2022-12-29T16:44:10;9.10;99.90
41926;DHT22;27615;51.826;5.692;2022-12-29T16:46:37;9.10;99.90
41926;DHT22;27615;51.826;5.692;2022-12-29T16:49:07;9.10;99.90
41926;DHT22;27615;51.826;5.692;2022-12-29T16:51:39;9.00;99.90
41926;DHT22;27615;51.826;5.692;2022-12-29T16:54:05;9.00;99.90
41926;DHT22;27615;51.826;5.692;2022-12-29T16:56:35;9.00;99.90
41926;DHT22;27615;51.826;5.692;2022-12-29T17:01:29;9.00;99.90
41926;DHT22;27615;51.826;5.692;2022-12-29T17:03:59;9.00;99.90
41926;DHT22;27615;51.826;5.692;2022-12-29T17:06:26;8.90;99.90
41926;DHT22;27615;51.826;5.692;2022-12-29T17:08:51;8.90;99.90
41926;DHT22;27615;51.826;5.692;2022-12-29T17:14:18;8.90;99.90
41926;DHT22;27615;51.826;5.692;2022-12-29T17:16:44;8.90;99.90
41926;DHT22;27615;51.826;5.692;2022-12-29T17:19:17;8.80;99.90
41926;DHT22;27615;51.826;5.692;2022-12-29T17:21:43;8.80;99.90
41926;DHT22;27615;51.826;5.692;2022-12-29T17:24:18;8.80;99.90
41926;DHT22;27615;51.826;5.692;2022-12-29T17:26:45;8.70;99.90
41926;DHT22;27615;51.826;5.692;2022-12-29T17:29:15;8.70;99.90
41926;DHT22;27615;51.826;5.692;2022-12-29T17:31:43;8.70;99.90
41926;DHT22;27615;51.826;5.692;2022-12-29T17:34:10;8.70;99.90
41926;DHT22;27615;51.826;5.692;2022-12-29T17:36:36;8.70;99.90
41926;DHT22;27615;51.826;5.692;2022-12-29T17:39:01;8.70;99.90
41926;DHT22;27615;51.826;5.692;2022-12-29T17:41:26;8.60;99.90
41926;DHT22;27615;51.826;5.692;2022-12-29T17:43:52;8.60;99.90
41926;DHT22;27615;51.826;5.692;2022-12-29T17:46:17;8.60;99.90
41926;DHT22;27615;51.826;5.692;2022-12-29T17:48:43;8.60;99.90
41926;DHT22;27615;51.826;5.692;2022-12-29T17:51:08;8.60;99.90